createdAt,value
2022-08-17T00:02:25.253Z,60.91
2022-08-17T00:04:54.511Z,61.10
2022-08-17T00:07:21.189Z,61.59
2022-08-17T00:09:47.675Z,61.69
2022-08-17T00:12:42.998Z,61.90
2022-08-17T00:15:01.044Z,61.60
2022-08-17T00:17:27.849Z,62.00
2022-08-17T00:19:54.322Z,62.15
2022-08-17T00:25:11.983Z,62.73
2022-08-17T00:27:38.442Z,62.82
2022-08-17T00:30:08.671Z,62.97
2022-08-17T00:33:15.641Z,62.66
2022-08-17T00:35:27.825Z,62.96
2022-08-17T00:37:54.392Z,63.32
2022-08-17T00:40:21.593Z,63.42
2022-08-17T00:42:51.968Z,63.68
2022-08-17T00:45:20.314Z,63.53
2022-08-17T00:47:47.385Z,63.98
2022-08-17T00:50:16.926Z,64.03
2022-08-17T00:52:50.894Z,63.87
2022-08-17T00:55:22.187Z,64.27
2022-08-17T00:57:55.161Z,64.34
2022-08-17T01:00:28.685Z,64.69
2022-08-17T01:03:00.179Z,64.59
2022-08-17T01:05:29.415Z,65.02
2022-08-17T01:07:55.979Z,64.97
2022-08-17T01:10:58.657Z,65.29
2022-08-17T01:13:24.399Z,65.71
2022-08-17T01:16:00.083Z,66.03
2022-08-17T01:18:27.562Z,66.26
2022-08-17T01:20:57.495Z,66.16
2022-08-17T01:23:26.038Z,66.63
2022-08-17T01:25:56.705Z,66.84
2022-08-17T01:28:52.317Z,67.28
2022-08-17T01:31:13.635Z,67.09
2022-08-17T01:33:40.249Z,67.24
2022-08-17T01:36:07.361Z,67.17
2022-08-17T01:38:38.609Z,67.35
2022-08-17T01:41:18.410Z,67.85
2022-08-17T01:43:50.898Z,68.34
2022-08-17T01:46:23.169Z,68.33
2022-08-17T01:48:51.134Z,68.52
2022-08-17T01:51:17.731Z,68.72
2022-08-17T01:53:52.291Z,68.54
2022-08-17T01:56:21.562Z,68.91
2022-08-17T01:58:48.633Z,68.65
2022-08-17T02:01:21.667Z,69.13
2022-08-17T02:03:53.511Z,69.25
2022-08-17T02:06:28.912Z,69.20
2022-08-17T02:09:01.656Z,69.45
2022-08-17T02:11:30.996Z,69.41
2022-08-17T02:14:03.404Z,70.15
2022-08-17T02:16:37.189Z,70.41
2022-08-17T02:19:07.363Z,70.38
2022-08-17T02:21:34.172Z,70.08
2022-08-17T02:24:00.785Z,70.31
2022-08-17T02:26:27.326Z,70.17
2022-08-17T02:28:53.899Z,70.55
2022-08-17T02:31:21.221Z,70.25
2022-08-17T02:33:47.762Z,70.89
2022-08-17T02:36:30.040Z,70.88
2022-08-17T02:38:56.944Z,71.12
2022-08-17T02:41:23.438Z,71.10
2022-08-17T02:43:49.907Z,70.95
2022-08-17T02:46:16.346Z,71.00
2022-08-17T02:48:42.810Z,70.79
2022-08-17T02:51:10.628Z,71.07
2022-08-17T02:53:37.223Z,71.03
2022-08-17T02:56:04.207Z,71.00
2022-08-17T02:58:35.535Z,70.94
2022-08-17T03:01:07.805Z,70.75
2022-08-17T03:03:35.974Z,70.93
2022-08-17T03:06:03.227Z,71.40
2022-08-17T03:08:30.701Z,71.62
2022-08-17T03:10:57.255Z,71.63
2022-08-17T03:13:24.094Z,71.96
2022-08-17T03:15:50.874Z,71.72
2022-08-17T03:18:25.684Z,71.60
2022-08-17T03:20:55.674Z,71.35
2022-08-17T03:23:24.001Z,71.16
2022-08-17T03:25:52.802Z,70.95
2022-08-17T03:28:20.534Z,71.02
2022-08-17T03:30:47.082Z,70.71
2022-08-17T03:33:13.684Z,70.83
2022-08-17T03:35:40.568Z,70.57
2022-08-17T03:38:09.028Z,70.57
2022-08-17T03:40:57.509Z,70.29
2022-08-17T03:43:23.141Z,70.39
2022-08-17T03:46:11.061Z,70.14
2022-08-17T03:49:13.987Z,70.12
2022-08-17T03:51:58.978Z,69.91
2022-08-17T03:54:44.114Z,70.01
2022-08-17T03:57:12.184Z,69.84
2022-08-17T03:59:38.808Z,70.20
2022-08-17T04:02:11.119Z,70.33
2022-08-17T04:04:38.799Z,70.48
2022-08-17T04:07:05.871Z,70.43
2022-08-17T04:09:32.430Z,71.04
2022-08-17T04:12:02.414Z,70.98
2022-08-17T04:14:36.079Z,71.09
2022-08-17T04:17:06.285Z,71.33
2022-08-17T04:19:33.010Z,71.15
2022-08-17T04:21:59.475Z,71.12
2022-08-17T04:24:27.125Z,70.97
2022-08-17T04:26:54.794Z,71.13
2022-08-17T04:29:21.541Z,71.18
2022-08-17T04:31:48.172Z,71.61
2022-08-17T04:34:14.716Z,71.54
2022-08-17T04:36:50.259Z,71.53
2022-08-17T04:39:17.170Z,71.46
2022-08-17T04:42:02.282Z,71.44
2022-08-17T04:44:37.730Z,71.30
2022-08-17T04:47:05.022Z,71.55
2022-08-17T04:49:32.502Z,71.06
2022-08-17T04:52:04.373Z,71.22
2022-08-17T04:54:31.691Z,72.57
2022-08-17T04:56:58.170Z,75.00
2022-08-17T04:59:24.848Z,75.81
2022-08-17T05:01:51.917Z,76.47
2022-08-17T05:04:34.396Z,77.77
2022-08-17T05:07:02.113Z,78.08
2022-08-17T05:09:28.976Z,78.68
2022-08-17T05:11:56.252Z,78.69
2022-08-17T05:14:33.097Z,79.26
2022-08-17T05:17:00.403Z,79.05
2022-08-17T05:19:28.403Z,78.25
2022-08-17T05:21:54.824Z,78.74
2022-08-17T05:24:43.070Z,78.35
2022-08-17T05:27:08.589Z,78.34
2022-08-17T05:29:35.633Z,78.56
2022-08-17T05:32:38.734Z,78.91
2022-08-17T05:35:00.451Z,78.81
2022-08-17T05:37:27.263Z,78.81
2022-08-17T05:39:56.674Z,78.63
2022-08-17T05:42:24.009Z,79.18
2022-08-17T05:44:50.468Z,78.82
2022-08-17T05:47:18.276Z,78.59
2022-08-17T05:49:44.899Z,78.71
2022-08-17T05:52:33.762Z,78.76
2022-08-17T05:55:09.930Z,79.26
2022-08-17T05:57:56.146Z,78.88
2022-08-17T06:00:30.838Z,79.11
2022-08-17T06:03:27.359Z,79.23
2022-08-17T06:06:25.199Z,79.13
2022-08-17T06:09:51.691Z,79.04
2022-08-17T06:12:56.036Z,78.50
2022-08-17T06:15:32.062Z,78.38
2022-08-17T06:18:02.714Z,78.50
2022-08-17T06:20:38.378Z,77.61
2022-08-17T06:23:10.655Z,77.56
2022-08-17T06:25:44.975Z,78.04
2022-08-17T06:28:24.214Z,77.67
2022-08-17T06:31:00.876Z,77.68
2022-08-17T06:33:34.194Z,77.29
2022-08-17T06:36:26.318Z,77.25
2022-08-17T06:38:59.740Z,78.09
2022-08-17T06:41:46.109Z,79.02
2022-08-17T06:44:49.866Z,79.13
2022-08-17T06:47:28.831Z,78.73
2022-08-17T06:50:05.451Z,78.21
2022-08-17T06:52:46.676Z,77.85
2022-08-17T06:55:26.189Z,76.76
2022-08-17T06:57:59.473Z,75.89
2022-08-17T07:00:33.702Z,76.18
2022-08-17T07:03:22.518Z,75.97
2022-08-17T07:06:05.490Z,76.60
2022-08-17T07:08:49.763Z,76.34
2022-08-17T07:11:27.410Z,76.67
2022-08-17T07:14:24.462Z,76.55
2022-08-17T07:16:55.270Z,77.16
2022-08-17T07:19:26.414Z,76.86
2022-08-17T07:22:22.766Z,76.94
2022-08-17T07:24:51.508Z,76.58
2022-08-17T07:27:33.791Z,76.40
2022-08-17T07:30:10.844Z,74.31
2022-08-17T07:32:50.997Z,73.36
2022-08-17T07:35:40.642Z,72.98
2022-08-17T07:38:24.957Z,72.24
2022-08-17T07:41:05.832Z,71.88
2022-08-17T07:43:44.805Z,71.39
2022-08-17T07:46:29.733Z,72.14
2022-08-17T07:49:17.991Z,72.58
2022-08-17T07:51:45.487Z,72.81
2022-08-17T07:54:15.026Z,72.60
2022-08-17T07:57:00.324Z,72.95
2022-08-17T07:59:38.474Z,72.31
2022-08-17T08:02:33.910Z,72.64
2022-08-17T08:05:06.573Z,72.26
2022-08-17T08:07:55.806Z,71.79
2022-08-17T08:10:29.807Z,72.43
2022-08-17T08:13:06.229Z,73.29
2022-08-17T08:15:36.717Z,72.92
2022-08-17T08:18:18.631Z,71.97
2022-08-17T08:21:10.710Z,69.49
2022-08-17T08:23:37.199Z,68.90
2022-08-17T08:26:14.124Z,67.25
2022-08-17T08:29:14.672Z,66.31
2022-08-17T08:31:52.239Z,65.28
2022-08-17T08:35:00.848Z,64.03
2022-08-17T08:37:47.306Z,62.29
2022-08-17T08:40:25.550Z,62.34
2022-08-17T08:43:16.239Z,59.73
2022-08-17T08:45:57.883Z,60.42
2022-08-17T08:48:52.890Z,59.82
2022-08-17T08:51:34.570Z,61.20
2022-08-17T08:54:28.420Z,60.38
2022-08-17T09:00:10.543Z,60.04
2022-08-17T09:03:04.700Z,59.89
2022-08-17T09:06:33.382Z,59.43
2022-08-17T09:09:04.699Z,59.15
2022-08-17T09:12:01.272Z,58.97
2022-08-17T09:14:47.519Z,57.97
2022-08-17T09:17:39.655Z,58.26
2022-08-17T09:20:28.189Z,58.12
2022-08-17T09:23:15.384Z,57.49
2022-08-17T09:26:16.881Z,57.98
2022-08-17T09:28:50.511Z,58.13
2022-08-17T09:31:48.735Z,56.88
2022-08-17T09:34:19.039Z,56.23
2022-08-17T09:36:55.567Z,55.84
2022-08-17T09:39:36.193Z,55.84
2022-08-17T09:42:15.718Z,56.22
2022-08-17T09:45:16.061Z,55.92
2022-08-17T09:47:56.522Z,56.35
2022-08-17T09:51:05.013Z,56.49
2022-08-17T09:53:23.003Z,55.80
2022-08-17T09:55:55.706Z,55.80
2022-08-17T09:58:55.400Z,56.15
2022-08-17T10:01:46.821Z,56.64
2022-08-17T10:04:34.815Z,57.10
2022-08-17T10:07:20.946Z,57.31
2022-08-17T10:10:02.602Z,57.23
2022-08-17T10:13:24.739Z,56.80
2022-08-17T10:16:03.482Z,56.93
2022-08-17T10:18:38.792Z,56.78
2022-08-17T10:21:31.309Z,57.01
2022-08-17T10:24:30.430Z,57.59
2022-08-17T10:27:00.182Z,57.36
2022-08-17T10:29:47.531Z,56.83
2022-08-17T10:32:26.729Z,57.24
2022-08-17T10:35:14.627Z,56.55
2022-08-17T10:38:04.889Z,56.30
2022-08-17T10:40:55.920Z,56.22
2022-08-17T10:43:39.454Z,55.61
2022-08-17T10:46:30.547Z,56.90
2022-08-17T10:49:16.807Z,56.48
2022-08-17T10:51:45.903Z,56.96
2022-08-17T10:54:24.579Z,57.28
2022-08-17T10:56:56.686Z,56.81
2022-08-17T10:59:34.978Z,56.53
2022-08-17T11:02:04.447Z,57.39
2022-08-17T11:04:45.334Z,57.61
2022-08-17T11:07:27.891Z,57.89
2022-08-17T11:10:13.343Z,59.55
2022-08-17T11:12:45.721Z,59.29
2022-08-17T11:15:15.662Z,58.85
2022-08-17T11:18:07.738Z,58.29
2022-08-17T11:20:43.573Z,59.24
2022-08-17T11:23:38.757Z,58.58
2022-08-17T11:26:25.733Z,58.34
2022-08-17T11:28:58.827Z,58.35
2022-08-17T11:31:38.823Z,58.19
2022-08-17T11:34:43.336Z,58.30
2022-08-17T11:37:36.699Z,58.24
2022-08-17T11:40:05.914Z,58.04
2022-08-17T11:42:36.176Z,57.45
2022-08-17T11:45:07.593Z,57.42
2022-08-17T11:48:29.131Z,58.14
2022-08-17T11:51:33.700Z,57.69
2022-08-17T11:54:34.736Z,58.09
2022-08-17T11:57:21.376Z,57.01
2022-08-17T11:59:47.816Z,57.56
2022-08-17T12:02:35.437Z,57.98
2022-08-17T12:05:12.299Z,56.83
2022-08-17T12:07:49.278Z,56.79
2022-08-17T12:10:19.310Z,55.86
2022-08-17T12:12:50.089Z,55.06
2022-08-17T12:15:21.433Z,54.94
2022-08-17T12:17:53.862Z,54.29
2022-08-17T12:20:27.700Z,53.26
2022-08-17T12:23:01.007Z,52.89
2022-08-17T12:25:33.988Z,52.81
2022-08-17T12:28:06.594Z,52.88
2022-08-17T12:30:35.419Z,53.46
2022-08-17T12:33:02.484Z,53.95
2022-08-17T12:35:36.147Z,53.12
2022-08-17T12:38:07.331Z,53.23
2022-08-17T12:40:58.034Z,53.37
2022-08-17T12:43:27.514Z,54.00
2022-08-17T12:45:57.295Z,54.17
2022-08-17T12:48:30.950Z,55.42
2022-08-17T12:51:02.817Z,55.80
2022-08-17T12:53:32.113Z,56.18
2022-08-17T12:56:00.187Z,57.08
2022-08-17T12:58:33.127Z,56.87
2022-08-17T13:01:04.588Z,58.00
2022-08-17T13:03:53.214Z,59.29
2022-08-17T13:06:30.088Z,59.34
2022-08-17T13:08:56.756Z,59.60
2022-08-17T13:11:24.819Z,60.68
2022-08-17T13:13:55.044Z,60.16
2022-08-17T13:16:25.698Z,60.63
2022-08-17T13:19:09.561Z,61.17
2022-08-17T13:21:37.856Z,61.64
2022-08-17T13:24:07.745Z,63.39
2022-08-17T13:26:35.606Z,63.73
2022-08-17T13:29:06.562Z,63.95
2022-08-17T13:31:52.413Z,64.41
2022-08-17T13:34:26.702Z,65.08
2022-08-17T13:37:29.409Z,64.56
2022-08-17T13:40:26.638Z,64.51
2022-08-17T13:42:55.418Z,64.91
2022-08-17T13:45:36.094Z,64.75
2022-08-17T13:48:13.635Z,65.16
2022-08-17T13:50:55.627Z,66.18
2022-08-17T13:53:48.985Z,66.80
2022-08-17T13:56:37.746Z,68.58
2022-08-17T13:59:36.293Z,68.72
2022-08-17T14:02:14.078Z,69.46
2022-08-17T14:04:44.026Z,69.99
2022-08-17T14:07:11.390Z,70.96
2022-08-17T14:09:48.514Z,72.14
2022-08-17T14:12:19.873Z,72.83
2022-08-17T14:14:46.414Z,73.30
2022-08-17T14:17:13.263Z,73.78
2022-08-17T14:19:39.804Z,73.75
2022-08-17T14:22:11.513Z,73.61
2022-08-17T14:24:44.643Z,74.73
2022-08-17T14:27:11.952Z,74.78
2022-08-17T14:29:38.779Z,75.11
2022-08-17T14:32:26.933Z,75.10
2022-08-17T14:34:56.555Z,75.06
2022-08-17T14:37:26.252Z,75.18
2022-08-17T14:39:57.750Z,75.92
2022-08-17T14:42:27.051Z,75.62
2022-08-17T14:44:55.076Z,75.75
2022-08-17T14:47:22.248Z,76.66
2022-08-17T14:49:51.486Z,76.50
2022-08-17T14:52:21.550Z,76.58
2022-08-17T14:54:51.245Z,76.38
2022-08-17T14:57:25.150Z,76.67
2022-08-17T15:00:01.300Z,77.13
2022-08-17T15:02:29.751Z,77.61
2022-08-17T15:05:02.183Z,77.27
2022-08-17T15:07:30.929Z,77.69
2022-08-17T15:10:00.658Z,77.84
2022-08-17T15:12:32.319Z,77.72
2022-08-17T15:15:00.551Z,78.68
2022-08-17T15:17:27.095Z,78.88
2022-08-17T15:20:17.294Z,78.94
2022-08-17T15:22:45.457Z,80.12
2022-08-17T15:25:12.514Z,79.85
2022-08-17T15:27:38.959Z,80.34
2022-08-17T15:30:07.252Z,80.48
2022-08-17T15:32:37.857Z,79.90
2022-08-17T15:35:06.058Z,80.50
2022-08-17T15:37:32.525Z,80.19
2022-08-17T15:40:01.142Z,80.26
2022-08-17T15:42:29.240Z,80.72
2022-08-17T15:44:55.852Z,81.51
2022-08-17T15:47:23.119Z,80.83
2022-08-17T15:49:50.681Z,80.54
2022-08-17T15:52:23.354Z,80.61
2022-08-17T15:54:59.711Z,81.91
2022-08-17T15:57:27.253Z,80.58
2022-08-17T15:59:58.631Z,80.61
2022-08-17T16:03:14.923Z,81.25
2022-08-17T16:05:21.959Z,80.90
2022-08-17T16:07:52.488Z,80.71
2022-08-17T16:10:19.664Z,81.04
2022-08-17T16:12:48.415Z,80.56
2022-08-17T16:15:16.322Z,80.50
2022-08-17T16:17:43.045Z,80.11
2022-08-17T16:20:20.029Z,80.34
2022-08-17T16:22:49.147Z,81.01
2022-08-17T16:25:22.782Z,80.38
2022-08-17T16:28:05.430Z,80.78
2022-08-17T16:30:33.107Z,79.99
2022-08-17T16:33:01.513Z,80.85
2022-08-17T16:35:28.029Z,80.92
2022-08-17T16:37:57.040Z,81.09
2022-08-17T16:40:27.408Z,80.84
2022-08-17T16:42:55.253Z,81.07
2022-08-17T16:45:27.238Z,81.10
2022-08-17T16:47:54.928Z,80.56
2022-08-17T16:50:23.409Z,81.20
2022-08-17T16:52:50.950Z,80.15
2022-08-17T16:55:20.585Z,80.35
2022-08-17T16:57:50.650Z,79.79
2022-08-17T17:00:19.194Z,79.72
2022-08-17T17:02:47.569Z,79.71
2022-08-17T17:05:51.323Z,80.23
2022-08-17T17:08:30.279Z,79.80
2022-08-17T17:10:59.982Z,79.49
2022-08-17T17:13:40.814Z,79.34
2022-08-17T17:16:41.433Z,79.15
2022-08-17T17:19:17.803Z,79.23
2022-08-17T17:22:21.711Z,79.08
2022-08-17T17:25:14.174Z,78.77
2022-08-17T17:27:54.921Z,79.23
2022-08-17T17:30:48.199Z,78.68
2022-08-17T17:33:19.076Z,78.62
2022-08-17T17:36:00.108Z,78.80
2022-08-17T17:38:34.145Z,78.85
2022-08-17T17:41:05.434Z,78.93
2022-08-17T17:43:39.603Z,78.61
2022-08-17T17:46:30.539Z,78.25
2022-08-17T17:48:57.820Z,78.38
2022-08-17T17:52:06.745Z,78.35
2022-08-17T17:54:56.250Z,78.33
2022-08-17T17:57:34.694Z,78.58
2022-08-17T18:00:19.058Z,78.29
2022-08-17T18:02:52.847Z,78.55
2022-08-17T18:05:46.902Z,79.09
2022-08-17T18:08:34.366Z,79.23
2022-08-17T18:11:24.389Z,79.00
2022-08-17T18:14:07.650Z,79.51
2022-08-17T18:16:34.344Z,79.79
2022-08-17T18:19:00.920Z,79.42
2022-08-17T18:21:39.081Z,79.00
2022-08-17T18:24:08.375Z,79.17
2022-08-17T18:26:40.034Z,79.14
2022-08-17T18:29:23.898Z,79.09
2022-08-17T18:32:16.022Z,79.47
2022-08-17T18:34:47.665Z,79.74
2022-08-17T18:37:35.260Z,79.06
2022-08-17T18:40:24.036Z,79.03
2022-08-17T18:43:05.505Z,79.26
2022-08-17T18:45:43.162Z,79.36
2022-08-17T18:48:21.058Z,79.03
2022-08-17T18:50:48.062Z,78.75
2022-08-17T18:53:33.199Z,78.89
2022-08-17T18:56:36.100Z,78.97
2022-08-17T18:59:05.060Z,79.14
2022-08-17T19:02:21.589Z,79.75
2022-08-17T19:05:10.982Z,79.33
2022-08-17T19:07:45.242Z,79.90
2022-08-17T19:10:14.901Z,79.74
2022-08-17T19:12:53.087Z,79.64
2022-08-17T19:16:14.206Z,79.65
2022-08-17T19:18:50.853Z,79.98
2022-08-17T19:21:43.321Z,79.81
2022-08-17T19:24:19.279Z,79.41
2022-08-17T19:26:55.587Z,79.65
2022-08-17T19:29:38.391Z,79.67
2022-08-17T19:32:09.074Z,80.07
2022-08-17T19:34:37.154Z,79.92
2022-08-17T19:37:29.964Z,80.35
2022-08-17T19:40:48.851Z,80.29
2022-08-17T19:43:37.846Z,80.02
2022-08-17T19:46:25.974Z,80.00
2022-08-17T19:49:12.713Z,80.02
2022-08-17T19:51:43.753Z,80.48
2022-08-17T19:54:35.536Z,79.77
2022-08-17T19:57:27.119Z,79.87
2022-08-17T20:00:04.415Z,79.92
2022-08-17T20:02:41.302Z,79.64
2022-08-17T20:05:21.280Z,79.67
2022-08-17T20:08:12.321Z,80.10
2022-08-17T20:10:48.102Z,79.55
2022-08-17T20:13:33.564Z,79.90
2022-08-17T20:16:01.049Z,79.59
2022-08-17T20:18:33.489Z,79.89
2022-08-17T20:21:10.015Z,79.64
2022-08-17T20:24:01.552Z,79.46
2022-08-17T20:26:58.012Z,79.54
2022-08-17T20:29:40.268Z,79.35
2022-08-17T20:32:21.493Z,78.74
2022-08-17T20:34:48.317Z,78.88
2022-08-17T20:37:14.704Z,78.64
2022-08-17T20:39:43.047Z,78.36
2022-08-17T20:42:29.794Z,78.54
2022-08-17T20:45:05.156Z,78.46
2022-08-17T20:47:50.444Z,78.30
2022-08-17T20:50:29.624Z,78.41
2022-08-17T20:52:58.966Z,78.82
2022-08-17T20:55:34.269Z,78.90
2022-08-17T20:58:16.051Z,78.68
2022-08-17T21:00:50.214Z,79.07
2022-08-17T21:03:28.603Z,79.31
2022-08-17T21:06:18.378Z,79.61
2022-08-17T21:08:57.764Z,79.31
2022-08-17T21:11:57.032Z,79.54
2022-08-17T21:14:30.977Z,79.20
2022-08-17T21:17:19.003Z,79.21
2022-08-17T21:20:10.740Z,79.08
2022-08-17T21:22:50.516Z,79.30
2022-08-17T21:25:44.809Z,79.10
2022-08-17T21:29:00.640Z,79.13
2022-08-17T21:31:39.883Z,78.93
2022-08-17T21:34:15.386Z,78.73
2022-08-17T21:36:43.767Z,79.10
2022-08-17T21:39:14.451Z,79.19
2022-08-17T21:41:52.726Z,78.86
2022-08-17T21:44:19.287Z,78.76
2022-08-17T21:46:49.333Z,78.87
2022-08-17T21:49:19.492Z,79.06
2022-08-17T21:51:54.079Z,78.86
2022-08-17T21:54:30.769Z,79.00
2022-08-17T21:57:00.625Z,78.91
2022-08-17T21:59:32.858Z,79.20
2022-08-17T22:02:02.195Z,79.61
2022-08-17T22:04:40.796Z,80.08
2022-08-17T22:07:11.225Z,80.05
2022-08-17T22:09:41.244Z,79.71
2022-08-17T22:12:26.124Z,79.90
2022-08-17T22:14:55.452Z,80.13
2022-08-17T22:17:23.930Z,80.48
2022-08-17T22:19:54.306Z,80.31
2022-08-17T22:22:58.297Z,79.87
2022-08-17T22:25:27.281Z,80.37
2022-08-17T22:27:57.329Z,80.41
2022-08-17T22:30:34.371Z,80.28
2022-08-17T22:33:29.361Z,80.39
2022-08-17T22:36:24.645Z,80.80
2022-08-17T22:39:00.137Z,80.69
2022-08-17T22:41:26.546Z,80.92
2022-08-17T22:43:54.087Z,80.75
2022-08-17T22:46:23.816Z,81.02
2022-08-17T22:48:54.770Z,81.04
2022-08-17T22:51:25.548Z,81.04
2022-08-17T22:54:14.684Z,81.22
2022-08-17T22:57:18.734Z,81.38
2022-08-17T22:59:52.708Z,81.40
2022-08-17T23:02:32.084Z,81.33
2022-08-17T23:05:12.669Z,81.55
2022-08-17T23:07:40.621Z,81.35
2022-08-17T23:10:09.866Z,81.61
2022-08-17T23:12:39.921Z,81.97
2022-08-17T23:15:18.918Z,82.09
2022-08-17T23:17:45.881Z,82.08
2022-08-17T23:20:14.992Z,81.94
2022-08-17T23:22:51.265Z,81.84
2022-08-17T23:25:25.531Z,82.17
2022-08-17T23:27:52.336Z,82.27
2022-08-17T23:30:18.964Z,82.08
2022-08-17T23:32:53.801Z,82.44
2022-08-17T23:35:39.806Z,82.39
2022-08-17T23:38:11.825Z,82.82
2022-08-17T23:40:39.740Z,82.89
2022-08-17T23:43:24.058Z,83.14
2022-08-17T23:45:52.897Z,82.61
2022-08-17T23:48:32.645Z,82.65
2022-08-17T23:51:12.675Z,82.66
2022-08-17T23:53:46.315Z,82.60
2022-08-17T23:56:13.521Z,82.42
2022-08-17T23:58:42.632Z,82.39
